sensor_id;sensor_type;location;lat;lon;timestamp;P1;durP1;ratioP1;P2;durP2;ratioP2
14754;SDS011;7469;50.906;6.952;2023-05-10T00:00:15;4.90;;;3.93;;
14754;SDS011;7469;50.906;6.952;2023-05-10T00:02:43;5.33;;;4.53;;
14754;SDS011;7469;50.906;6.952;2023-05-10T00:05:13;5.20;;;4.70;;
14754;SDS011;7469;50.906;6.952;2023-05-10T00:07:41;5.03;;;4.40;;
14754;SDS011;7469;50.906;6.952;2023-05-10T00:10:11;5.33;;;4.83;;
14754;SDS011;7469;50.906;6.952;2023-05-10T00:12:39;7.17;;;4.67;;
14754;SDS011;7469;50.906;6.952;2023-05-10T00:15:08;6.10;;;4.80;;
14754;SDS011;7469;50.906;6.952;2023-05-10T00:17:36;5.63;;;4.87;;
14754;SDS011;7469;50.906;6.952;2023-05-10T00:20:04;5.27;;;4.77;;
14754;SDS011;7469;50.906;6.952;2023-05-10T00:22:34;6.13;;;5.20;;
14754;SDS011;7469;50.906;6.952;2023-05-10T00:25:02;5.80;;;4.93;;
14754;SDS011;7469;50.906;6.952;2023-05-10T00:27:31;5.50;;;5.00;;
14754;SDS011;7469;50.906;6.952;2023-05-10T00:29:59;5.43;;;4.93;;
14754;SDS011;7469;50.906;6.952;2023-05-10T00:32:27;6.30;;;5.60;;
14754;SDS011;7469;50.906;6.952;2023-05-10T00:34:55;6.13;;;5.53;;
14754;SDS011;7469;50.906;6.952;2023-05-10T00:37:23;5.93;;;5.30;;
14754;SDS011;7469;50.906;6.952;2023-05-10T00:39:52;6.13;;;5.57;;
14754;SDS011;7469;50.906;6.952;2023-05-10T00:42:20;5.40;;;4.90;;
14754;SDS011;7469;50.906;6.952;2023-05-10T00:44:48;8.53;;;5.87;;
14754;SDS011;7469;50.906;6.952;2023-05-10T00:47:17;6.27;;;5.67;;
14754;SDS011;7469;50.906;6.952;2023-05-10T00:49:46;5.97;;;5.37;;
14754;SDS011;7469;50.906;6.952;2023-05-10T00:52:14;6.37;;;5.30;;
14754;SDS011;7469;50.906;6.952;2023-05-10T00:54:42;5.40;;;4.90;;
14754;SDS011;7469;50.906;6.952;2023-05-10T00:57:11;5.50;;;4.97;;
14754;SDS011;7469;50.906;6.952;2023-05-10T00:59:39;6.37;;;5.57;;
14754;SDS011;7469;50.906;6.952;2023-05-10T01:02:07;6.10;;;5.50;;
14754;SDS011;7469;50.906;6.952;2023-05-10T01:04:35;6.40;;;5.80;;
14754;SDS011;7469;50.906;6.952;2023-05-10T01:07:04;7.10;;;6.13;;
14754;SDS011;7469;50.906;6.952;2023-05-10T01:09:32;9.53;;;6.43;;
14754;SDS011;7469;50.906;6.952;2023-05-10T01:12:01;6.43;;;5.83;;
14754;SDS011;7469;50.906;6.952;2023-05-10T01:14:31;7.47;;;6.30;;
14754;SDS011;7469;50.906;6.952;2023-05-10T01:17:00;7.53;;;6.40;;
14754;SDS011;7469;50.906;6.952;2023-05-10T01:19:29;7.03;;;6.33;;
14754;SDS011;7469;50.906;6.952;2023-05-10T01:22:02;7.73;;;6.93;;
14754;SDS011;7469;50.906;6.952;2023-05-10T01:24:49;8.37;;;7.43;;
14754;SDS011;7469;50.906;6.952;2023-05-10T01:28:07;7.70;;;6.90;;
14754;SDS011;7469;50.906;6.952;2023-05-10T01:34:00;8.60;;;7.47;;
14754;SDS011;7469;50.906;6.952;2023-05-10T01:36:35;7.80;;;7.00;;
14754;SDS011;7469;50.906;6.952;2023-05-10T01:39:08;7.60;;;6.67;;
14754;SDS011;7469;50.906;6.952;2023-05-10T01:41:54;7.13;;;6.43;;
14754;SDS011;7469;50.906;6.952;2023-05-10T01:44:28;7.53;;;6.50;;
14754;SDS011;7469;50.906;6.952;2023-05-10T01:47:04;8.90;;;6.93;;
14754;SDS011;7469;50.906;6.952;2023-05-10T01:49:36;8.90;;;6.77;;
14754;SDS011;7469;50.906;6.952;2023-05-10T01:52:09;8.40;;;6.13;;
14754;SDS011;7469;50.906;6.952;2023-05-10T01:54:41;6.90;;;6.20;;
14754;SDS011;7469;50.906;6.952;2023-05-10T01:57:15;7.47;;;6.23;;
14754;SDS011;7469;50.906;6.952;2023-05-10T01:59:45;6.10;;;5.50;;
14754;SDS011;7469;50.906;6.952;2023-05-10T02:02:17;6.90;;;6.03;;
14754;SDS011;7469;50.906;6.952;2023-05-10T02:04:48;8.97;;;5.93;;
14754;SDS011;7469;50.906;6.952;2023-05-10T02:07:17;8.60;;;5.10;;
14754;SDS011;7469;50.906;6.952;2023-05-10T02:09:46;5.97;;;5.37;;
14754;SDS011;7469;50.906;6.952;2023-05-10T02:12:15;6.20;;;5.60;;
14754;SDS011;7469;50.906;6.952;2023-05-10T02:14:44;6.60;;;5.40;;
14754;SDS011;7469;50.906;6.952;2023-05-10T02:17:14;6.67;;;5.93;;
14754;SDS011;7469;50.906;6.952;2023-05-10T02:19:43;6.20;;;5.57;;
14754;SDS011;7469;50.906;6.952;2023-05-10T02:22:13;5.70;;;5.10;;
14754;SDS011;7469;50.906;6.952;2023-05-10T02:24:42;7.50;;;5.37;;
14754;SDS011;7469;50.906;6.952;2023-05-10T02:27:11;6.97;;;5.33;;
14754;SDS011;7469;50.906;6.952;2023-05-10T02:29:41;6.60;;;5.53;;
14754;SDS011;7469;50.906;6.952;2023-05-10T02:32:09;6.63;;;5.53;;
14754;SDS011;7469;50.906;6.952;2023-05-10T02:34:39;9.57;;;5.57;;
14754;SDS011;7469;50.906;6.952;2023-05-10T02:37:07;7.70;;;5.57;;
14754;SDS011;7469;50.906;6.952;2023-05-10T02:39:37;6.93;;;5.60;;
14754;SDS011;7469;50.906;6.952;2023-05-10T02:42:10;7.40;;;5.40;;
14754;SDS011;7469;50.906;6.952;2023-05-10T02:44:43;6.97;;;6.00;;
14754;SDS011;7469;50.906;6.952;2023-05-10T02:47:12;6.57;;;5.53;;
14754;SDS011;7469;50.906;6.952;2023-05-10T02:49:40;6.40;;;5.47;;
14754;SDS011;7469;50.906;6.952;2023-05-10T02:52:08;6.57;;;5.40;;
14754;SDS011;7469;50.906;6.952;2023-05-10T02:54:41;6.57;;;5.53;;
14754;SDS011;7469;50.906;6.952;2023-05-10T02:57:16;6.00;;;5.07;;
14754;SDS011;7469;50.906;6.952;2023-05-10T02:59:45;6.57;;;5.10;;
14754;SDS011;7469;50.906;6.952;2023-05-10T03:02:14;5.60;;;5.00;;
14754;SDS011;7469;50.906;6.952;2023-05-10T03:04:42;8.37;;;5.27;;
14754;SDS011;7469;50.906;6.952;2023-05-10T03:07:10;5.00;;;4.50;;
14754;SDS011;7469;50.906;6.952;2023-05-10T03:09:40;6.47;;;4.67;;
14754;SDS011;7469;50.906;6.952;2023-05-10T03:12:11;5.77;;;5.17;;
14754;SDS011;7469;50.906;6.952;2023-05-10T03:14:47;6.30;;;4.93;;
14754;SDS011;7469;50.906;6.952;2023-05-10T03:17:22;6.70;;;4.73;;
14754;SDS011;7469;50.906;6.952;2023-05-10T03:19:56;4.90;;;4.40;;
14754;SDS011;7469;50.906;6.952;2023-05-10T03:22:29;4.87;;;4.43;;
14754;SDS011;7469;50.906;6.952;2023-05-10T03:25:04;5.97;;;4.80;;
14754;SDS011;7469;50.906;6.952;2023-05-10T03:27:35;5.20;;;4.70;;
14754;SDS011;7469;50.906;6.952;2023-05-10T03:30:07;4.60;;;4.20;;
14754;SDS011;7469;50.906;6.952;2023-05-10T03:32:37;5.40;;;4.83;;
14754;SDS011;7469;50.906;6.952;2023-05-10T03:35:06;5.77;;;4.40;;
14754;SDS011;7469;50.906;6.952;2023-05-10T03:37:35;5.57;;;4.80;;
14754;SDS011;7469;50.906;6.952;2023-05-10T03:40:05;4.93;;;4.43;;
14754;SDS011;7469;50.906;6.952;2023-05-10T03:42:33;5.27;;;4.77;;
14754;SDS011;7469;50.906;6.952;2023-05-10T03:45:02;5.60;;;5.00;;
14754;SDS011;7469;50.906;6.952;2023-05-10T03:47:30;8.60;;;5.80;;
14754;SDS011;7469;50.906;6.952;2023-05-10T03:49:58;9.07;;;5.20;;
14754;SDS011;7469;50.906;6.952;2023-05-10T03:52:26;8.17;;;6.50;;
14754;SDS011;7469;50.906;6.952;2023-05-10T03:54:54;6.80;;;5.23;;
14754;SDS011;7469;50.906;6.952;2023-05-10T03:57:23;8.37;;;6.27;;
14754;SDS011;7469;50.906;6.952;2023-05-10T03:59:51;9.00;;;5.57;;
14754;SDS011;7469;50.906;6.952;2023-05-10T04:02:19;6.80;;;5.23;;
14754;SDS011;7469;50.906;6.952;2023-05-10T04:04:47;8.93;;;5.87;;
14754;SDS011;7469;50.906;6.952;2023-05-10T04:07:15;7.87;;;6.30;;
14754;SDS011;7469;50.906;6.952;2023-05-10T04:09:44;9.33;;;5.10;;
14754;SDS011;7469;50.906;6.952;2023-05-10T04:12:12;8.77;;;5.30;;
14754;SDS011;7469;50.906;6.952;2023-05-10T04:14:41;7.27;;;5.33;;
14754;SDS011;7469;50.906;6.952;2023-05-10T04:17:09;6.03;;;4.80;;
14754;SDS011;7469;50.906;6.952;2023-05-10T04:19:37;6.73;;;5.27;;
14754;SDS011;7469;50.906;6.952;2023-05-10T04:22:06;7.47;;;5.00;;
14754;SDS011;7469;50.906;6.952;2023-05-10T04:24:34;8.03;;;6.17;;
14754;SDS011;7469;50.906;6.952;2023-05-10T04:27:02;9.23;;;5.97;;
14754;SDS011;7469;50.906;6.952;2023-05-10T04:29:30;7.77;;;6.10;;
14754;SDS011;7469;50.906;6.952;2023-05-10T04:31:59;7.63;;;5.50;;
14754;SDS011;7469;50.906;6.952;2023-05-10T04:34:28;6.93;;;5.80;;
14754;SDS011;7469;50.906;6.952;2023-05-10T04:36:56;10.40;;;6.33;;
14754;SDS011;7469;50.906;6.952;2023-05-10T04:39:23;11.27;;;7.03;;
14754;SDS011;7469;50.906;6.952;2023-05-10T04:41:51;8.80;;;7.07;;
14754;SDS011;7469;50.906;6.952;2023-05-10T04:44:19;8.83;;;6.63;;
14754;SDS011;7469;50.906;6.952;2023-05-10T04:46:47;9.70;;;7.60;;
14754;SDS011;7469;50.906;6.952;2023-05-10T04:49:16;8.47;;;6.87;;
14754;SDS011;7469;50.906;6.952;2023-05-10T04:51:45;10.30;;;7.30;;
14754;SDS011;7469;50.906;6.952;2023-05-10T04:54:13;11.40;;;7.70;;
14754;SDS011;7469;50.906;6.952;2023-05-10T04:56:41;11.97;;;8.83;;
14754;SDS011;7469;50.906;6.952;2023-05-10T04:59:09;15.53;;;8.27;;
14754;SDS011;7469;50.906;6.952;2023-05-10T05:01:37;12.20;;;8.53;;
14754;SDS011;7469;50.906;6.952;2023-05-10T05:04:04;11.27;;;7.47;;
14754;SDS011;7469;50.906;6.952;2023-05-10T05:06:34;12.00;;;7.77;;
14754;SDS011;7469;50.906;6.952;2023-05-10T05:09:02;13.13;;;8.63;;
14754;SDS011;7469;50.906;6.952;2023-05-10T05:11:30;13.77;;;8.53;;
14754;SDS011;7469;50.906;6.952;2023-05-10T05:13:58;16.67;;;8.57;;
14754;SDS011;7469;50.906;6.952;2023-05-10T05:16:26;12.03;;;8.30;;
14754;SDS011;7469;50.906;6.952;2023-05-10T05:18:54;11.20;;;8.43;;
14754;SDS011;7469;50.906;6.952;2023-05-10T05:21:22;11.20;;;7.70;;
14754;SDS011;7469;50.906;6.952;2023-05-10T05:23:54;12.53;;;8.17;;
14754;SDS011;7469;50.906;6.952;2023-05-10T05:26:22;12.73;;;7.67;;
14754;SDS011;7469;50.906;6.952;2023-05-10T05:28:50;12.97;;;8.20;;
14754;SDS011;7469;50.906;6.952;2023-05-10T05:31:20;12.83;;;8.30;;
14754;SDS011;7469;50.906;6.952;2023-05-10T05:33:49;12.33;;;7.40;;
14754;SDS011;7469;50.906;6.952;2023-05-10T05:36:17;10.57;;;7.43;;
14754;SDS011;7469;50.906;6.952;2023-05-10T05:38:45;15.20;;;7.93;;
14754;SDS011;7469;50.906;6.952;2023-05-10T05:41:15;16.00;;;7.60;;
14754;SDS011;7469;50.906;6.952;2023-05-10T05:43:43;10.50;;;7.90;;
14754;SDS011;7469;50.906;6.952;2023-05-10T05:46:11;11.07;;;7.43;;
14754;SDS011;7469;50.906;6.952;2023-05-10T05:48:39;13.90;;;7.67;;
14754;SDS011;7469;50.906;6.952;2023-05-10T05:51:07;15.63;;;7.97;;
14754;SDS011;7469;50.906;6.952;2023-05-10T05:53:35;13.83;;;8.30;;
14754;SDS011;7469;50.906;6.952;2023-05-10T05:56:03;13.83;;;8.67;;
14754;SDS011;7469;50.906;6.952;2023-05-10T05:58:33;14.87;;;8.13;;
14754;SDS011;7469;50.906;6.952;2023-05-10T06:01:01;11.70;;;7.50;;
14754;SDS011;7469;50.906;6.952;2023-05-10T06:03:29;16.63;;;8.50;;
14754;SDS011;7469;50.906;6.952;2023-05-10T06:05:58;14.30;;;8.47;;
14754;SDS011;7469;50.906;6.952;2023-05-10T06:08:26;12.87;;;7.97;;
14754;SDS011;7469;50.906;6.952;2023-05-10T06:10:54;14.80;;;7.50;;
14754;SDS011;7469;50.906;6.952;2023-05-10T06:13:22;11.57;;;8.10;;
14754;SDS011;7469;50.906;6.952;2023-05-10T06:15:52;11.80;;;8.10;;
14754;SDS011;7469;50.906;6.952;2023-05-10T06:18:19;11.67;;;7.73;;
14754;SDS011;7469;50.906;6.952;2023-05-10T06:20:47;13.33;;;7.70;;
14754;SDS011;7469;50.906;6.952;2023-05-10T06:23:17;10.33;;;7.60;;
14754;SDS011;7469;50.906;6.952;2023-05-10T06:25:45;9.80;;;7.20;;
14754;SDS011;7469;50.906;6.952;2023-05-10T06:28:13;12.87;;;8.17;;
14754;SDS011;7469;50.906;6.952;2023-05-10T06:30:41;11.33;;;7.77;;
14754;SDS011;7469;50.906;6.952;2023-05-10T06:33:10;10.73;;;7.53;;
14754;SDS011;7469;50.906;6.952;2023-05-10T06:35:38;12.13;;;7.50;;
14754;SDS011;7469;50.906;6.952;2023-05-10T06:38:06;9.80;;;6.93;;
14754;SDS011;7469;50.906;6.952;2023-05-10T06:40:34;11.93;;;8.27;;
14754;SDS011;7469;50.906;6.952;2023-05-10T06:43:03;13.37;;;8.40;;
14754;SDS011;7469;50.906;6.952;2023-05-10T06:45:31;12.70;;;7.70;;
14754;SDS011;7469;50.906;6.952;2023-05-10T06:47:59;11.23;;;8.33;;
14754;SDS011;7469;50.906;6.952;2023-05-10T06:50:29;10.03;;;7.57;;
14754;SDS011;7469;50.906;6.952;2023-05-10T06:52:57;12.73;;;7.13;;
14754;SDS011;7469;50.906;6.952;2023-05-10T06:55:25;18.10;;;7.93;;
14754;SDS011;7469;50.906;6.952;2023-05-10T06:57:53;12.57;;;8.23;;
14754;SDS011;7469;50.906;6.952;2023-05-10T07:00:21;10.50;;;7.63;;
14754;SDS011;7469;50.906;6.952;2023-05-10T07:02:49;11.03;;;7.40;;
14754;SDS011;7469;50.906;6.952;2023-05-10T07:05:17;11.93;;;7.83;;
14754;SDS011;7469;50.906;6.952;2023-05-10T07:07:47;12.80;;;8.17;;
14754;SDS011;7469;50.906;6.952;2023-05-10T07:10:15;13.07;;;8.20;;
14754;SDS011;7469;50.906;6.952;2023-05-10T07:12:43;12.23;;;7.87;;
14754;SDS011;7469;50.906;6.952;2023-05-10T07:15:12;12.43;;;7.90;;
14754;SDS011;7469;50.906;6.952;2023-05-10T07:17:40;13.93;;;8.07;;
14754;SDS011;7469;50.906;6.952;2023-05-10T07:20:11;11.40;;;6.77;;
14754;SDS011;7469;50.906;6.952;2023-05-10T07:22:39;9.60;;;7.07;;
14754;SDS011;7469;50.906;6.952;2023-05-10T07:25:09;12.83;;;7.40;;
14754;SDS011;7469;50.906;6.952;2023-05-10T07:27:37;14.70;;;7.87;;
14754;SDS011;7469;50.906;6.952;2023-05-10T07:30:05;13.30;;;7.90;;
14754;SDS011;7469;50.906;6.952;2023-05-10T07:32:34;13.93;;;7.30;;
14754;SDS011;7469;50.906;6.952;2023-05-10T07:35:02;10.77;;;7.93;;
14754;SDS011;7469;50.906;6.952;2023-05-10T07:37:31;12.70;;;8.00;;
14754;SDS011;7469;50.906;6.952;2023-05-10T07:39:58;12.30;;;7.67;;
14754;SDS011;7469;50.906;6.952;2023-05-10T07:42:28;10.10;;;7.13;;
14754;SDS011;7469;50.906;6.952;2023-05-10T07:44:56;10.70;;;7.47;;
14754;SDS011;7469;50.906;6.952;2023-05-10T07:47:23;13.93;;;7.30;;
14754;SDS011;7469;50.906;6.952;2023-05-10T07:49:52;13.03;;;7.10;;
14754;SDS011;7469;50.906;6.952;2023-05-10T07:52:20;10.50;;;7.33;;
14754;SDS011;7469;50.906;6.952;2023-05-10T07:54:48;11.93;;;6.67;;
14754;SDS011;7469;50.906;6.952;2023-05-10T07:57:16;14.50;;;6.83;;
14754;SDS011;7469;50.906;6.952;2023-05-10T07:59:46;10.17;;;7.10;;
14754;SDS011;7469;50.906;6.952;2023-05-10T08:02:14;10.33;;;6.77;;
14754;SDS011;7469;50.906;6.952;2023-05-10T08:04:43;9.83;;;6.57;;
14754;SDS011;7469;50.906;6.952;2023-05-10T08:07:11;8.93;;;6.53;;
14754;SDS011;7469;50.906;6.952;2023-05-10T08:09:38;10.23;;;6.53;;
14754;SDS011;7469;50.906;6.952;2023-05-10T08:12:06;10.50;;;6.03;;
14754;SDS011;7469;50.906;6.952;2023-05-10T08:14:34;9.03;;;5.07;;
14754;SDS011;7469;50.906;6.952;2023-05-10T08:17:04;7.03;;;4.73;;
14754;SDS011;7469;50.906;6.952;2023-05-10T08:19:32;6.10;;;4.27;;
14754;SDS011;7469;50.906;6.952;2023-05-10T08:22:00;7.90;;;4.43;;
14754;SDS011;7469;50.906;6.952;2023-05-10T08:24:28;6.57;;;4.40;;
14754;SDS011;7469;50.906;6.952;2023-05-10T08:26:56;7.47;;;4.27;;
14754;SDS011;7469;50.906;6.952;2023-05-10T08:29:24;7.07;;;4.10;;
14754;SDS011;7469;50.906;6.952;2023-05-10T08:31:55;6.60;;;4.30;;
14754;SDS011;7469;50.906;6.952;2023-05-10T08:34:24;6.37;;;4.03;;
14754;SDS011;7469;50.906;6.952;2023-05-10T08:36:53;8.47;;;3.77;;
14754;SDS011;7469;50.906;6.952;2023-05-10T08:39:20;5.33;;;4.17;;
14754;SDS011;7469;50.906;6.952;2023-05-10T08:41:55;4.77;;;3.10;;
14754;SDS011;7469;50.906;6.952;2023-05-10T08:44:28;2.90;;;2.40;;
14754;SDS011;7469;50.906;6.952;2023-05-10T08:46:58;3.20;;;2.63;;
14754;SDS011;7469;50.906;6.952;2023-05-10T08:49:31;5.67;;;2.50;;
14754;SDS011;7469;50.906;6.952;2023-05-10T08:52:01;5.07;;;2.77;;
14754;SDS011;7469;50.906;6.952;2023-05-10T08:54:31;4.80;;;3.47;;
14754;SDS011;7469;50.906;6.952;2023-05-10T08:57:00;5.37;;;3.87;;
14754;SDS011;7469;50.906;6.952;2023-05-10T08:59:28;4.23;;;3.83;;
14754;SDS011;7469;50.906;6.952;2023-05-10T09:01:57;4.50;;;4.10;;
14754;SDS011;7469;50.906;6.952;2023-05-10T09:04:25;4.40;;;4.00;;
14754;SDS011;7469;50.906;6.952;2023-05-10T09:06:56;4.20;;;3.60;;
14754;SDS011;7469;50.906;6.952;2023-05-10T09:09:24;4.67;;;4.00;;
14754;SDS011;7469;50.906;6.952;2023-05-10T09:11:55;4.77;;;3.63;;
14754;SDS011;7469;50.906;6.952;2023-05-10T09:14:23;5.10;;;4.10;;
14754;SDS011;7469;50.906;6.952;2023-05-10T09:16:52;6.83;;;4.23;;
14754;SDS011;7469;50.906;6.952;2023-05-10T09:19:21;5.23;;;3.73;;
14754;SDS011;7469;50.906;6.952;2023-05-10T09:21:49;3.80;;;3.40;;
14754;SDS011;7469;50.906;6.952;2023-05-10T09:24:18;6.30;;;4.20;;
14754;SDS011;7469;50.906;6.952;2023-05-10T09:26:47;6.60;;;3.67;;
14754;SDS011;7469;50.906;6.952;2023-05-10T09:29:15;3.20;;;2.90;;
14754;SDS011;7469;50.906;6.952;2023-05-10T09:31:44;4.03;;;2.90;;
14754;SDS011;7469;50.906;6.952;2023-05-10T09:34:17;3.43;;;2.63;;
14754;SDS011;7469;50.906;6.952;2023-05-10T09:36:53;3.10;;;2.80;;
14754;SDS011;7469;50.906;6.952;2023-05-10T09:39:30;3.23;;;2.37;;
14754;SDS011;7469;50.906;6.952;2023-05-10T09:41:59;2.20;;;2.00;;
14754;SDS011;7469;50.906;6.952;2023-05-10T09:44:30;2.30;;;2.00;;
14754;SDS011;7469;50.906;6.952;2023-05-10T09:46:58;6.23;;;2.87;;
14754;SDS011;7469;50.906;6.952;2023-05-10T09:49:27;3.07;;;2.67;;
14754;SDS011;7469;50.906;6.952;2023-05-10T09:52:02;4.77;;;3.20;;
14754;SDS011;7469;50.906;6.952;2023-05-10T09:54:32;6.97;;;4.10;;
14754;SDS011;7469;50.906;6.952;2023-05-10T09:57:02;6.40;;;4.50;;
14754;SDS011;7469;50.906;6.952;2023-05-10T09:59:32;8.10;;;5.13;;
14754;SDS011;7469;50.906;6.952;2023-05-10T10:02:01;7.20;;;5.40;;
14754;SDS011;7469;50.906;6.952;2023-05-10T10:04:29;7.97;;;5.50;;
14754;SDS011;7469;50.906;6.952;2023-05-10T10:06:58;8.77;;;6.13;;
14754;SDS011;7469;50.906;6.952;2023-05-10T10:09:27;6.97;;;5.27;;
14754;SDS011;7469;50.906;6.952;2023-05-10T10:11:57;7.60;;;5.20;;
14754;SDS011;7469;50.906;6.952;2023-05-10T10:14:26;7.90;;;4.80;;
14754;SDS011;7469;50.906;6.952;2023-05-10T10:16:54;8.93;;;4.90;;
14754;SDS011;7469;50.906;6.952;2023-05-10T10:19:34;5.07;;;3.60;;
14754;SDS011;7469;50.906;6.952;2023-05-10T10:22:03;5.17;;;3.80;;
14754;SDS011;7469;50.906;6.952;2023-05-10T10:24:31;5.97;;;3.60;;
14754;SDS011;7469;50.906;6.952;2023-05-10T10:27:07;10.03;;;4.20;;
14754;SDS011;7469;50.906;6.952;2023-05-10T10:29:44;6.30;;;3.80;;
14754;SDS011;7469;50.906;6.952;2023-05-10T10:32:22;4.20;;;3.37;;
14754;SDS011;7469;50.906;6.952;2023-05-10T10:34:57;4.40;;;3.73;;
14754;SDS011;7469;50.906;6.952;2023-05-10T10:37:40;3.97;;;3.33;;
14754;SDS011;7469;50.906;6.952;2023-05-10T10:40:23;4.10;;;3.23;;
14754;SDS011;7469;50.906;6.952;2023-05-10T10:42:56;3.77;;;3.03;;
14754;SDS011;7469;50.906;6.952;2023-05-10T10:45:25;5.37;;;4.00;;
14754;SDS011;7469;50.906;6.952;2023-05-10T10:47:56;6.40;;;4.70;;
14754;SDS011;7469;50.906;6.952;2023-05-10T10:50:47;5.67;;;4.13;;
14754;SDS011;7469;50.906;6.952;2023-05-10T10:53:15;6.23;;;4.60;;
14754;SDS011;7469;50.906;6.952;2023-05-10T10:55:46;6.37;;;4.00;;
14754;SDS011;7469;50.906;6.952;2023-05-10T10:58:29;4.93;;;3.67;;
14754;SDS011;7469;50.906;6.952;2023-05-10T11:01:11;3.90;;;3.07;;
14754;SDS011;7469;50.906;6.952;2023-05-10T11:03:40;4.07;;;3.17;;
14754;SDS011;7469;50.906;6.952;2023-05-10T11:06:28;4.07;;;2.93;;
14754;SDS011;7469;50.906;6.952;2023-05-10T11:08:57;3.57;;;2.73;;
14754;SDS011;7469;50.906;6.952;2023-05-10T11:11:26;3.57;;;3.27;;
14754;SDS011;7469;50.906;6.952;2023-05-10T11:13:55;3.77;;;2.80;;
14754;SDS011;7469;50.906;6.952;2023-05-10T11:16:40;3.60;;;2.30;;
14754;SDS011;7469;50.906;6.952;2023-05-10T11:19:10;3.20;;;2.90;;
14754;SDS011;7469;50.906;6.952;2023-05-10T11:21:44;2.37;;;1.97;;
14754;SDS011;7469;50.906;6.952;2023-05-10T11:24:15;1.97;;;1.80;;
14754;SDS011;7469;50.906;6.952;2023-05-10T11:26:44;2.07;;;1.70;;
14754;SDS011;7469;50.906;6.952;2023-05-10T11:29:13;3.27;;;1.87;;
14754;SDS011;7469;50.906;6.952;2023-05-10T11:31:41;2.53;;;1.40;;
14754;SDS011;7469;50.906;6.952;2023-05-10T11:34:11;3.17;;;1.90;;
14754;SDS011;7469;50.906;6.952;2023-05-10T11:36:40;1.83;;;1.67;;
14754;SDS011;7469;50.906;6.952;2023-05-10T11:39:08;2.17;;;1.73;;
14754;SDS011;7469;50.906;6.952;2023-05-10T11:41:37;2.93;;;1.80;;
14754;SDS011;7469;50.906;6.952;2023-05-10T11:44:08;2.27;;;1.80;;
14754;SDS011;7469;50.906;6.952;2023-05-10T11:46:38;2.53;;;1.60;;
14754;SDS011;7469;50.906;6.952;2023-05-10T11:49:06;1.40;;;1.40;;
14754;SDS011;7469;50.906;6.952;2023-05-10T11:51:34;1.17;;;1.17;;
14754;SDS011;7469;50.906;6.952;2023-05-10T11:54:05;1.93;;;1.67;;
14754;SDS011;7469;50.906;6.952;2023-05-10T11:56:35;1.20;;;1.10;;
14754;SDS011;7469;50.906;6.952;2023-05-10T11:59:04;3.40;;;1.50;;
14754;SDS011;7469;50.906;6.952;2023-05-10T12:01:32;2.60;;;1.10;;
14754;SDS011;7469;50.906;6.952;2023-05-10T12:04:01;1.40;;;1.30;;
14754;SDS011;7469;50.906;6.952;2023-05-10T12:06:30;0.70;;;0.70;;
14754;SDS011;7469;50.906;6.952;2023-05-10T12:09:01;0.90;;;0.90;;
14754;SDS011;7469;50.906;6.952;2023-05-10T12:11:36;0.90;;;0.90;;
14754;SDS011;7469;50.906;6.952;2023-05-10T12:14:09;1.10;;;1.10;;
14754;SDS011;7469;50.906;6.952;2023-05-10T12:16:37;1.07;;;0.97;;
14754;SDS011;7469;50.906;6.952;2023-05-10T12:19:06;1.33;;;1.33;;
14754;SDS011;7469;50.906;6.952;2023-05-10T12:21:34;1.33;;;1.17;;
14754;SDS011;7469;50.906;6.952;2023-05-10T12:24:03;2.00;;;1.10;;
14754;SDS011;7469;50.906;6.952;2023-05-10T12:26:32;1.13;;;1.03;;
14754;SDS011;7469;50.906;6.952;2023-05-10T12:29:11;1.73;;;1.20;;
14754;SDS011;7469;50.906;6.952;2023-05-10T12:31:50;1.23;;;1.13;;
14754;SDS011;7469;50.906;6.952;2023-05-10T12:34:24;1.53;;;1.43;;
14754;SDS011;7469;50.906;6.952;2023-05-10T12:36:52;1.50;;;1.40;;
14754;SDS011;7469;50.906;6.952;2023-05-10T12:39:21;1.20;;;1.10;;
14754;SDS011;7469;50.906;6.952;2023-05-10T12:41:49;0.87;;;0.87;;
14754;SDS011;7469;50.906;6.952;2023-05-10T12:44:17;1.17;;;0.83;;
14754;SDS011;7469;50.906;6.952;2023-05-10T12:46:46;1.17;;;0.90;;
14754;SDS011;7469;50.906;6.952;2023-05-10T12:49:14;1.20;;;0.90;;
14754;SDS011;7469;50.906;6.952;2023-05-10T12:51:44;0.70;;;0.70;;
14754;SDS011;7469;50.906;6.952;2023-05-10T12:54:12;0.57;;;0.57;;
14754;SDS011;7469;50.906;6.952;2023-05-10T12:56:40;1.00;;;1.00;;
14754;SDS011;7469;50.906;6.952;2023-05-10T12:59:08;1.27;;;0.93;;
14754;SDS011;7469;50.906;6.952;2023-05-10T13:01:36;1.57;;;1.13;;
14754;SDS011;7469;50.906;6.952;2023-05-10T13:04:05;1.80;;;0.80;;
14754;SDS011;7469;50.906;6.952;2023-05-10T13:06:32;1.07;;;0.70;;
14754;SDS011;7469;50.906;6.952;2023-05-10T13:09:02;0.90;;;0.90;;
14754;SDS011;7469;50.906;6.952;2023-05-10T13:11:30;0.87;;;0.70;;
14754;SDS011;7469;50.906;6.952;2023-05-10T13:13:58;0.93;;;0.93;;
14754;SDS011;7469;50.906;6.952;2023-05-10T13:16:26;0.87;;;0.87;;
14754;SDS011;7469;50.906;6.952;2023-05-10T13:18:54;1.23;;;0.70;;
14754;SDS011;7469;50.906;6.952;2023-05-10T13:21:22;1.93;;;0.83;;
14754;SDS011;7469;50.906;6.952;2023-05-10T13:23:51;0.83;;;0.77;;
14754;SDS011;7469;50.906;6.952;2023-05-10T13:26:21;0.87;;;0.80;;
14754;SDS011;7469;50.906;6.952;2023-05-10T13:28:49;0.80;;;0.80;;
14754;SDS011;7469;50.906;6.952;2023-05-10T13:31:18;0.90;;;0.90;;
14754;SDS011;7469;50.906;6.952;2023-05-10T13:33:46;1.10;;;1.00;;
14754;SDS011;7469;50.906;6.952;2023-05-10T13:36:14;0.73;;;0.73;;
14754;SDS011;7469;50.906;6.952;2023-05-10T13:38:42;0.60;;;0.60;;
14754;SDS011;7469;50.906;6.952;2023-05-10T13:41:10;0.60;;;0.60;;
14754;SDS011;7469;50.906;6.952;2023-05-10T13:43:39;0.73;;;0.73;;
14754;SDS011;7469;50.906;6.952;2023-05-10T13:46:07;0.73;;;0.73;;
14754;SDS011;7469;50.906;6.952;2023-05-10T13:48:35;0.67;;;0.67;;
14754;SDS011;7469;50.906;6.952;2023-05-10T13:51:04;1.83;;;0.60;;
14754;SDS011;7469;50.906;6.952;2023-05-10T13:53:32;0.67;;;0.60;;
14754;SDS011;7469;50.906;6.952;2023-05-10T13:56:00;2.80;;;0.70;;
14754;SDS011;7469;50.906;6.952;2023-05-10T13:58:29;1.17;;;0.70;;
14754;SDS011;7469;50.906;6.952;2023-05-10T14:00:58;0.63;;;0.43;;
14754;SDS011;7469;50.906;6.952;2023-05-10T14:03:26;1.10;;;0.63;;
14754;SDS011;7469;50.906;6.952;2023-05-10T14:05:54;1.53;;;0.70;;
14754;SDS011;7469;50.906;6.952;2023-05-10T14:08:22;0.40;;;0.40;;
14754;SDS011;7469;50.906;6.952;2023-05-10T14:10:49;1.20;;;0.53;;
14754;SDS011;7469;50.906;6.952;2023-05-10T14:13:18;0.40;;;0.40;;
14754;SDS011;7469;50.906;6.952;2023-05-10T14:15:46;0.43;;;0.43;;
14754;SDS011;7469;50.906;6.952;2023-05-10T14:18:15;0.43;;;0.40;;
14754;SDS011;7469;50.906;6.952;2023-05-10T14:20:43;0.67;;;0.30;;
14754;SDS011;7469;50.906;6.952;2023-05-10T14:23:11;1.07;;;0.50;;
14754;SDS011;7469;50.906;6.952;2023-05-10T14:25:39;2.27;;;0.87;;
14754;SDS011;7469;50.906;6.952;2023-05-10T14:28:07;0.50;;;0.50;;
14754;SDS011;7469;50.906;6.952;2023-05-10T14:30:36;0.77;;;0.77;;
14754;SDS011;7469;50.906;6.952;2023-05-10T14:33:04;1.70;;;0.40;;
14754;SDS011;7469;50.906;6.952;2023-05-10T14:35:35;0.60;;;0.60;;
14754;SDS011;7469;50.906;6.952;2023-05-10T14:38:03;0.50;;;0.50;;
14754;SDS011;7469;50.906;6.952;2023-05-10T14:40:31;0.80;;;0.60;;
14754;SDS011;7469;50.906;6.952;2023-05-10T14:43:00;0.67;;;0.67;;
14754;SDS011;7469;50.906;6.952;2023-05-10T14:45:28;0.83;;;0.77;;
14754;SDS011;7469;50.906;6.952;2023-05-10T14:47:56;0.90;;;0.80;;
14754;SDS011;7469;50.906;6.952;2023-05-10T14:50:25;3.30;;;0.70;;
14754;SDS011;7469;50.906;6.952;2023-05-10T14:53:04;0.50;;;0.50;;
14754;SDS011;7469;50.906;6.952;2023-05-10T14:55:31;0.87;;;0.80;;
14754;SDS011;7469;50.906;6.952;2023-05-10T14:58:01;0.30;;;0.30;;
14754;SDS011;7469;50.906;6.952;2023-05-10T15:00:29;1.13;;;0.77;;
14754;SDS011;7469;50.906;6.952;2023-05-10T15:02:58;0.80;;;0.53;;
14754;SDS011;7469;50.906;6.952;2023-05-10T15:05:27;1.93;;;0.60;;
14754;SDS011;7469;50.906;6.952;2023-05-10T15:07:55;0.77;;;0.77;;
14754;SDS011;7469;50.906;6.952;2023-05-10T15:10:24;0.60;;;0.60;;
14754;SDS011;7469;50.906;6.952;2023-05-10T15:12:52;1.17;;;0.90;;
14754;SDS011;7469;50.906;6.952;2023-05-10T15:15:20;0.80;;;0.80;;